Time;durP1;ratioP1;P1;durP2;ratioP2;P2;SDS_P1;SDS_P2;PMS_P1;PMS_P2;Temp;Humidity;BMP_temperature;BMP_pressure;BME280_temperature;BME280_humidity;BME280_pressure;Samples;Min_cycle;Max_cycle;Signal;HPM_P1;HPM_P2
2023/05/30 00:01:13;;;;;;;9.10;3.90;;;14.00;99.90;;;;;;5090871;28;20880;-70
2023/05/30 00:03:39;;;;;;;14.97;4.13;;;13.90;99.90;;;;;;5091384;28;20496;-70
2023/05/30 00:06:07;;;;;;;14.00;4.20;;;13.90;99.90;;;;;;5090799;28;20451;-70
2023/05/30 00:08:34;;;;;;;7.90;3.50;;;13.90;99.90;;;;;;5090394;28;20540;-70
2023/05/30 00:11:01;;;;;;;11.40;4.00;;;13.80;99.90;;;;;;5091261;28;20458;-70
2023/05/30 00:13:28;;;;;;;6.20;3.63;;;13.80;99.90;;;;;;5090766;28;20451;-70
2023/05/30 00:15:55;;;;;;;12.83;4.77;;;13.80;99.90;;;;;;5091344;28;20446;-70
2023/05/30 00:18:22;;;;;;;10.13;3.80;;;13.70;99.90;;;;;;5090855;28;20455;-70
2023/05/30 00:20:49;;;;;;;9.10;4.07;;;13.60;99.90;;;;;;5090578;28;20508;-70
2023/05/30 00:23:17;;;;;;;17.20;5.53;;;13.60;99.90;;;;;;5090637;28;20442;-70
2023/05/30 00:25:45;;;;;;;14.03;4.87;;;13.50;99.90;;;;;;5090547;28;20479;-70
2023/05/30 00:28:12;;;;;;;10.43;4.00;;;13.50;99.90;;;;;;5090171;28;20493;-70
2023/05/30 00:30:39;;;;;;;13.80;4.00;;;13.40;99.90;;;;;;5090277;28;20516;-70
2023/05/30 00:33:05;;;;;;;15.23;4.37;;;13.40;99.90;;;;;;5090603;28;20470;-70
2023/05/30 00:35:32;;;;;;;12.40;4.27;;;13.40;99.90;;;;;;5090899;28;20503;-71
2023/05/30 00:37:59;;;;;;;11.03;4.10;;;13.30;99.90;;;;;;5091002;28;20454;-70
2023/05/30 00:40:27;;;;;;;14.60;4.33;;;13.30;99.90;;;;;;5089863;28;20462;-70
2023/05/30 00:42:54;;;;;;;14.93;4.63;;;13.20;99.90;;;;;;5090584;28;21005;-70
2023/05/30 00:45:20;;;;;;;11.07;4.33;;;13.10;99.90;;;;;;5090489;28;20946;-71
2023/05/30 00:47:48;;;;;;;8.27;4.23;;;13.10;99.90;;;;;;5090660;28;20528;-71
2023/05/30 00:50:16;;;;;;;7.23;3.90;;;13.00;99.90;;;;;;5090041;28;20456;-71
2023/05/30 00:52:43;;;;;;;8.43;3.70;;;13.00;99.90;;;;;;5090522;28;20467;-70
2023/05/30 00:55:10;;;;;;;8.73;4.80;;;12.90;99.90;;;;;;5089234;28;20455;-70
2023/05/30 00:57:39;;;;;;;18.13;4.70;;;12.90;99.90;;;;;;5090670;28;20537;-70
2023/05/30 01:00:07;;;;;;;15.60;4.40;;;12.90;99.90;;;;;;5089861;28;20533;-70
2023/05/30 01:02:34;;;;;;;22.00;4.87;;;12.90;99.90;;;;;;5082379;28;20537;-70
2023/05/30 01:05:01;;;;;;;10.70;4.90;;;12.90;99.90;;;;;;5090189;28;20505;-70
2023/05/30 01:07:28;;;;;;;14.97;5.00;;;12.80;99.90;;;;;;5090183;28;20445;-70
2023/05/30 01:09:55;;;;;;;17.00;4.33;;;12.80;99.90;;;;;;5089895;28;20493;-70
2023/05/30 01:12:30;;;;;;;12.83;5.00;;;12.80;99.90;;;;;;5090238;28;20501;-70
2023/05/30 01:15:05;;;;;;;16.23;4.60;;;12.70;99.90;;;;;;5090319;28;20473;-71
2023/05/30 01:17:42;;;;;;;12.63;4.10;;;12.70;99.90;;;;;;5089997;28;20486;-70
2023/05/30 01:20:12;;;;;;;14.70;4.73;;;12.60;99.90;;;;;;5089629;28;20542;-70
2023/05/30 01:22:57;;;;;;;13.93;4.37;;;12.60;99.90;;;;;;5090485;28;20463;-70
2023/05/30 01:25:31;;;;;;;20.73;4.53;;;12.50;99.90;;;;;;5088368;28;20459;-70
2023/05/30 01:28:06;;;;;;;15.50;4.90;;;12.50;99.90;;;;;;5090274;28;20458;-70
2023/05/30 01:30:37;;;;;;;13.77;4.47;;;12.40;99.90;;;;;;5084200;28;20804;-70
2023/05/30 01:33:05;;;;;;;13.67;4.20;;;12.40;99.90;;;;;;5090046;28;21010;-70
2023/05/30 01:35:32;;;;;;;17.47;5.23;;;12.40;99.90;;;;;;5090051;28;20443;-70
2023/05/30 01:37:58;;;;;;;15.40;5.07;;;12.30;99.90;;;;;;5090038;28;20934;-70
2023/05/30 01:40:28;;;;;;;16.10;5.07;;;12.30;99.90;;;;;;5089809;28;20541;-70
2023/05/30 01:42:59;;;;;;;13.30;4.30;;;12.20;99.90;;;;;;5089273;28;21072;-70
2023/05/30 01:45:37;;;;;;;11.23;4.60;;;12.20;99.90;;;;;;5090161;28;20448;-70
2023/05/30 01:48:11;;;;;;;17.47;4.17;;;12.10;99.90;;;;;;5090318;28;20500;-70
2023/05/30 01:50:43;;;;;;;21.77;4.43;;;12.10;99.90;;;;;;5089105;28;20450;-70
2023/05/30 01:53:15;;;;;;;11.87;4.30;;;12.00;99.90;;;;;;5089499;28;20475;-70
2023/05/30 01:55:44;;;;;;;25.70;4.40;;;12.00;99.90;;;;;;5089691;28;20855;-71
2023/05/30 01:58:14;;;;;;;13.60;5.10;;;12.00;99.90;;;;;;5086470;28;20461;-70
2023/05/30 02:00:43;;;;;;;15.33;4.37;;;12.00;99.90;;;;;;5089727;28;20434;-70
2023/05/30 02:03:11;;;;;;;15.03;4.63;;;11.90;99.90;;;;;;5089639;28;20890;-70
2023/05/30 02:05:38;;;;;;;10.20;4.33;;;11.90;99.90;;;;;;5090242;28;20451;-69
2023/05/30 02:08:05;;;;;;;17.63;4.17;;;11.90;99.90;;;;;;5093180;28;20923;-70
2023/05/30 02:10:31;;;;;;;15.20;4.50;;;11.90;99.90;;;;;;5092844;28;20486;-70
2023/05/30 02:12:58;;;;;;;13.70;4.17;;;11.80;99.90;;;;;;5093660;28;20697;-70
2023/05/30 02:15:25;;;;;;;10.70;4.40;;;11.80;99.90;;;;;;5093028;28;20451;-71
2023/05/30 02:17:53;;;;;;;15.93;4.90;;;11.80;99.90;;;;;;5093034;28;20488;-70
2023/05/30 02:20:20;;;;;;;14.97;5.47;;;11.90;99.90;;;;;;5092484;28;20451;-70
2023/05/30 02:22:47;;;;;;;11.67;4.43;;;11.90;99.90;;;;;;5093330;28;20470;-71
2023/05/30 02:25:13;;;;;;;16.33;5.03;;;11.80;99.90;;;;;;5092790;28;20458;-71
2023/05/30 02:27:40;;;;;;;14.00;4.57;;;11.80;99.90;;;;;;5092834;28;20923;-70
2023/05/30 02:30:08;;;;;;;15.27;4.57;;;11.80;99.90;;;;;;5092018;28;20478;-70
2023/05/30 02:32:35;;;;;;;11.10;5.00;;;11.70;99.90;;;;;;5093065;28;20918;-70
2023/05/30 02:35:03;;;;;;;20.63;4.53;;;11.70;99.90;;;;;;5092475;28;20446;-71
2023/05/30 02:37:29;;;;;;;18.27;4.20;;;11.70;99.90;;;;;;5093206;28;20447;-70
2023/05/30 02:39:56;;;;;;;23.80;4.63;;;11.70;99.90;;;;;;5092760;28;20930;-70
2023/05/30 02:42:23;;;;;;;19.60;4.47;;;11.70;99.90;;;;;;5092751;28;20521;-70
2023/05/30 02:44:49;;;;;;;15.83;4.07;;;11.60;99.90;;;;;;5092959;28;20455;-71
2023/05/30 02:47:16;;;;;;;16.53;5.27;;;11.60;99.90;;;;;;5092541;28;20512;-70
2023/05/30 02:49:42;;;;;;;17.53;4.60;;;11.60;99.90;;;;;;5092347;28;20527;-70
2023/05/30 02:52:10;;;;;;;9.60;4.87;;;11.50;99.90;;;;;;5092644;28;20519;-70
2023/05/30 02:54:39;;;;;;;15.43;4.40;;;11.50;99.90;;;;;;5091996;28;20955;-71
2023/05/30 02:57:07;;;;;;;17.60;4.97;;;11.50;99.90;;;;;;5092220;28;20521;-70
2023/05/30 02:59:34;;;;;;;19.83;4.87;;;11.50;99.90;;;;;;5092230;28;20535;-70
2023/05/30 03:02:00;;;;;;;23.23;6.10;;;11.40;99.90;;;;;;5092730;28;20467;-70
2023/05/30 03:04:27;;;;;;;10.53;4.50;;;11.40;99.90;;;;;;5092121;28;20450;-70
2023/05/30 03:06:53;;;;;;;20.87;5.20;;;11.30;99.90;;;;;;5092538;28;20862;-70
2023/05/30 03:09:21;;;;;;;18.67;4.40;;;11.30;99.90;;;;;;5091874;28;20486;-70
2023/05/30 03:11:48;;;;;;;13.53;4.70;;;11.30;99.90;;;;;;5092335;28;20466;-70
2023/05/30 03:14:15;;;;;;;20.57;5.33;;;11.30;99.90;;;;;;5092408;28;20452;-70
2023/05/30 03:16:42;;;;;;;13.00;5.20;;;11.30;99.90;;;;;;5091541;28;20443;-71
2023/05/30 03:19:09;;;;;;;14.67;5.00;;;11.20;99.90;;;;;;5091418;28;20500;-70
2023/05/30 03:21:38;;;;;;;18.73;5.30;;;11.20;99.90;;;;;;5092203;28;20516;-71
2023/05/30 03:24:05;;;;;;;18.80;4.67;;;11.10;99.90;;;;;;5092290;28;20456;-71
2023/05/30 03:26:33;;;;;;;17.63;4.67;;;11.10;99.90;;;;;;5092128;28;20515;-70
2023/05/30 03:28:59;;;;;;;14.80;4.60;;;11.10;99.90;;;;;;5091451;28;20451;-71
2023/05/30 03:31:27;;;;;;;22.43;5.17;;;11.10;99.90;;;;;;5091681;28;20459;-71
2023/05/30 03:33:54;;;;;;;16.10;4.30;;;11.10;99.90;;;;;;5091847;28;20865;-71
2023/05/30 03:36:21;;;;;;;11.33;4.63;;;11.10;99.90;;;;;;5091882;28;20451;-71
2023/05/30 03:38:48;;;;;;;14.33;4.90;;;11.10;99.90;;;;;;5092016;28;20461;-71
2023/05/30 03:41:15;;;;;;;23.90;5.20;;;11.10;99.90;;;;;;5091164;28;20519;-71
2023/05/30 03:43:42;;;;;;;18.00;4.90;;;11.00;99.90;;;;;;5091190;28;20455;-71
2023/05/30 03:46:09;;;;;;;19.23;5.20;;;11.00;99.90;;;;;;5091579;28;20450;-71
2023/05/30 03:48:36;;;;;;;16.57;4.87;;;11.00;99.90;;;;;;5091675;28;20450;-71
2023/05/30 03:51:02;;;;;;;11.30;4.00;;;11.00;99.90;;;;;;5091258;28;20488;-71
2023/05/30 03:53:29;;;;;;;28.30;5.27;;;11.00;99.90;;;;;;5091853;28;20915;-71
2023/05/30 03:55:56;;;;;;;24.77;4.93;;;11.00;99.90;;;;;;5091205;28;20446;-71
2023/05/30 03:58:22;;;;;;;18.60;4.30;;;11.00;99.90;;;;;;5091429;28;20500;-71
2023/05/30 04:00:50;;;;;;;21.73;4.80;;;11.00;99.90;;;;;;5091071;28;20447;-71
2023/05/30 04:03:19;;;;;;;17.00;4.13;;;11.10;99.90;;;;;;5091264;28;20516;-71
2023/05/30 04:05:47;;;;;;;28.43;4.83;;;11.10;99.90;;;;;;5091430;28;20450;-71
2023/05/30 04:08:13;;;;;;;17.07;4.00;;;11.10;99.90;;;;;;5090925;28;20459;-71
2023/05/30 04:10:40;;;;;;;20.63;4.90;;;11.00;99.90;;;;;;5090587;28;21018;-71
2023/05/30 04:13:07;;;;;;;17.03;5.10;;;11.00;99.90;;;;;;5091185;28;20527;-71
2023/05/30 04:15:34;;;;;;;16.93;4.90;;;11.00;99.90;;;;;;5090843;28;20900;-71
2023/05/30 04:18:02;;;;;;;18.50;5.07;;;11.00;99.90;;;;;;5091536;28;20452;-71
2023/05/30 04:20:29;;;;;;;19.63;4.17;;;11.00;99.90;;;;;;5090849;28;20458;-71
2023/05/30 04:22:55;;;;;;;12.23;4.30;;;11.10;99.90;;;;;;5090835;28;20528;-70
2023/05/30 04:25:23;;;;;;;13.60;4.30;;;11.10;99.90;;;;;;5090971;28;20496;-71
2023/05/30 04:27:49;;;;;;;12.67;4.17;;;11.10;99.90;;;;;;5091109;28;20455;-71
2023/05/30 04:30:16;;;;;;;13.73;4.17;;;11.10;99.90;;;;;;5089346;28;20560;-71
2023/05/30 04:32:45;;;;;;;18.00;4.37;;;11.10;99.90;;;;;;5082410;28;20540;-71
2023/05/30 04:35:13;;;;;;;12.87;4.20;;;11.10;99.90;;;;;;5090295;28;20454;-71
2023/05/30 04:37:43;;;;;;;13.23;3.83;;;11.10;99.90;;;;;;5091044;28;20446;-72
2023/05/30 04:40:12;;;;;;;25.00;5.20;;;11.20;99.90;;;;;;5090612;28;20445;-71
2023/05/30 04:42:39;;;;;;;15.13;4.10;;;11.20;99.90;;;;;;5090166;28;20473;-71
2023/05/30 04:45:06;;;;;;;16.30;4.40;;;11.30;99.90;;;;;;5090419;28;20451;-72
2023/05/30 04:47:33;;;;;;;13.33;4.80;;;11.30;99.90;;;;;;5088793;28;20471;-73
2023/05/30 04:50:01;;;;;;;17.20;4.60;;;11.40;99.90;;;;;;5088618;28;20451;-72
2023/05/30 04:52:29;;;;;;;11.93;4.47;;;11.50;99.90;;;;;;5089998;28;20309;-71
2023/05/30 04:54:56;;;;;;;14.90;4.50;;;11.60;99.90;;;;;;5090054;28;20451;-72
2023/05/30 04:57:23;;;;;;;20.67;4.23;;;11.60;99.90;;;;;;5090077;28;20459;-71
2023/05/30 04:59:49;;;;;;;9.57;3.30;;;11.70;99.90;;;;;;5089713;28;20466;-72
2023/05/30 05:02:17;;;;;;;28.20;4.90;;;11.90;99.90;;;;;;5088061;28;20778;-72
2023/05/30 05:04:44;;;;;;;19.00;4.30;;;11.90;99.90;;;;;;5089923;28;20196;-72
2023/05/30 05:07:10;;;;;;;13.77;4.33;;;12.00;99.90;;;;;;5089712;28;20455;-72
2023/05/30 05:09:38;;;;;;;14.57;4.10;;;12.10;99.90;;;;;;5088673;28;20531;-73
2023/05/30 05:12:06;;;;;;;15.63;4.33;;;12.10;99.90;;;;;;5088657;28;20478;-72
2023/05/30 05:14:32;;;;;;;15.47;4.47;;;12.10;99.90;;;;;;5085657;28;20528;-72
2023/05/30 05:16:59;;;;;;;11.00;4.17;;;12.10;99.90;;;;;;5087927;28;20442;-73
2023/05/30 05:19:26;;;;;;;16.63;3.83;;;12.10;99.90;;;;;;5088049;28;20451;-73
2023/05/30 05:21:52;;;;;;;16.40;4.60;;;12.10;99.90;;;;;;5087896;28;20463;-73
2023/05/30 05:24:19;;;;;;;13.57;5.03;;;12.20;99.90;;;;;;5087152;28;20451;-70
2023/05/30 05:26:47;;;;;;;14.33;4.70;;;12.30;99.90;;;;;;5084233;28;20858;-70
2023/05/30 05:29:13;;;;;;;20.20;4.87;;;12.40;99.90;;;;;;5080655;28;20512;-70
2023/05/30 05:31:40;;;;;;;18.33;4.10;;;12.40;99.90;;;;;;5092974;28;20519;-70
2023/05/30 05:34:07;;;;;;;14.40;4.40;;;12.50;99.90;;;;;;5086675;28;20454;-70
2023/05/30 05:36:33;;;;;;;15.60;3.70;;;12.50;99.90;;;;;;5085623;28;20504;-71
2023/05/30 05:39:00;;;;;;;15.90;4.67;;;12.60;99.90;;;;;;5086017;28;20462;-70
2023/05/30 05:41:27;;;;;;;14.03;4.10;;;12.70;99.90;;;;;;5085495;28;20821;-70
2023/05/30 05:43:55;;;;;;;18.60;4.73;;;12.80;99.90;;;;;;5090116;28;20443;-70
2023/05/30 05:46:22;;;;;;;22.37;4.43;;;12.80;99.90;;;;;;5089560;28;20455;-70
2023/05/30 05:48:49;;;;;;;13.43;4.00;;;13.00;99.90;;;;;;5089912;28;20504;-70
2023/05/30 05:51:15;;;;;;;13.80;4.43;;;13.20;99.90;;;;;;5088445;28;21050;-70
2023/05/30 05:53:42;;;;;;;16.73;4.00;;;13.40;99.90;;;;;;5087935;28;20454;-70
2023/05/30 05:56:08;;;;;;;16.30;4.40;;;13.60;99.90;;;;;;5090033;28;21146;-70
2023/05/30 05:58:35;;;;;;;10.50;3.47;;;13.80;99.90;;;;;;5089813;28;20447;-70
2023/05/30 06:01:04;;;;;;;19.43;4.83;;;14.00;99.90;;;;;;5089262;28;20522;-69
2023/05/30 06:03:30;;;;;;;12.80;3.93;;;14.20;99.90;;;;;;5089477;28;20456;-70
2023/05/30 06:05:57;;;;;;;14.80;4.23;;;14.30;99.90;;;;;;5089530;28;20456;-70
2023/05/30 06:08:24;;;;;;;15.90;4.10;;;14.40;99.90;;;;;;5089625;28;21015;-70
2023/05/30 06:10:51;;;;;;;12.13;3.67;;;14.60;99.90;;;;;;5089304;28;21302;-70
2023/05/30 06:13:17;;;;;;;17.70;4.00;;;14.80;99.90;;;;;;5089028;28;21001;-70
2023/05/30 06:15:44;;;;;;;20.53;4.00;;;14.90;99.90;;;;;;5089327;28;20497;-70
2023/05/30 06:18:12;;;;;;;17.00;3.63;;;14.90;99.90;;;;;;5089592;28;20455;-70
2023/05/30 06:20:38;;;;;;;11.63;3.97;;;15.00;99.90;;;;;;5088723;28;20496;-70
2023/05/30 06:23:05;;;;;;;10.60;4.50;;;15.20;99.90;;;;;;5089238;28;20619;-70
2023/05/30 06:25:32;;;;;;;9.00;3.70;;;15.20;99.90;;;;;;5089644;28;20474;-70
2023/05/30 06:27:58;;;;;;;12.70;4.10;;;15.30;99.90;;;;;;5089046;28;20459;-70
2023/05/30 06:30:25;;;;;;;11.03;3.47;;;15.30;99.90;;;;;;5088933;28;20837;-70
2023/05/30 06:32:51;;;;;;;23.53;4.70;;;15.50;99.90;;;;;;5088409;28;20523;-70
2023/05/30 06:35:20;;;;;;;16.73;4.43;;;15.60;99.90;;;;;;5088251;28;20480;-70
2023/05/30 06:37:46;;;;;;;15.73;4.30;;;15.70;99.90;;;;;;5088255;28;20451;-69
2023/05/30 06:40:13;;;;;;;9.07;3.97;;;15.80;99.90;;;;;;5088319;28;20443;-69
2023/05/30 06:42:40;;;;;;;15.53;3.53;;;16.00;99.90;;;;;;5088335;28;20474;-71
2023/05/30 06:45:07;;;;;;;14.57;4.47;;;16.10;99.90;;;;;;5087896;28;20504;-70
2023/05/30 06:47:34;;;;;;;18.87;3.87;;;16.20;99.90;;;;;;5087373;28;20496;-70
2023/05/30 06:50:00;;;;;;;12.20;4.10;;;16.10;99.90;;;;;;5087877;28;20439;-70
2023/05/30 06:52:28;;;;;;;13.60;3.70;;;16.00;99.90;;;;;;5088103;28;20549;-70
2023/05/30 06:54:55;;;;;;;16.43;4.67;;;16.00;99.90;;;;;;5086924;28;20455;-70
2023/05/30 06:57:21;;;;;;;16.53;3.70;;;16.20;99.90;;;;;;5086954;28;20881;-70
2023/05/30 06:59:48;;;;;;;16.57;3.90;;;16.40;99.90;;;;;;5087092;28;20470;-70
2023/05/30 07:02:15;;;;;;;8.13;3.37;;;16.50;99.90;;;;;;5087612;28;20462;-70
2023/05/30 07:04:41;;;;;;;14.63;3.80;;;16.50;99.90;;;;;;5086700;28;21272;-70
2023/05/30 07:07:09;;;;;;;13.80;4.00;;;16.50;99.90;;;;;;5087300;28;20528;-70
2023/05/30 07:09:37;;;;;;;14.03;3.40;;;16.60;99.90;;;;;;5085975;28;20458;-70
2023/05/30 07:12:04;;;;;;;10.60;2.93;;;16.80;99.90;;;;;;5085996;28;20491;-71
2023/05/30 07:14:30;;;;;;;14.77;4.40;;;16.90;99.90;;;;;;5087362;28;20454;-71
2023/05/30 07:16:57;;;;;;;8.17;3.97;;;17.10;99.90;;;;;;5085786;28;21011;-71
2023/05/30 07:19:24;;;;;;;12.63;3.27;;;17.10;99.90;;;;;;5087782;28;20973;-71
2023/05/30 07:21:51;;;;;;;18.83;3.37;;;17.20;99.90;;;;;;5087365;28;20471;-71
2023/05/30 07:24:17;;;;;;;12.23;3.70;;;17.30;99.90;;;;;;5086362;28;20526;-71
2023/05/30 07:26:45;;;;;;;13.93;4.00;;;17.40;99.90;;;;;;5085723;28;20451;-70
2023/05/30 07:29:12;;;;;;;12.60;4.00;;;17.60;99.90;;;;;;5086329;28;20454;-71
2023/05/30 07:31:39;;;;;;;11.07;4.20;;;17.90;99.90;;;;;;5086268;28;20915;-71
2023/05/30 07:34:05;;;;;;;13.13;3.37;;;18.20;99.90;;;;;;5086794;28;20455;-71
2023/05/30 07:36:32;;;;;;;16.90;3.70;;;18.40;99.90;;;;;;5084155;28;20446;-71
2023/05/30 07:38:58;;;;;;;17.47;3.70;;;18.70;99.90;;;;;;5087347;28;20852;-71
2023/05/30 07:41:26;;;;;;;8.73;3.80;;;18.80;99.90;;;;;;5088369;28;20462;-71
2023/05/30 07:43:54;;;;;;;10.10;3.40;;;19.00;99.90;;;;;;5087426;28;21851;-71
2023/05/30 07:46:22;;;;;;;8.87;3.30;;;19.20;99.90;;;;;;5088612;28;20470;-71
2023/05/30 07:48:49;;;;;;;9.77;3.40;;;19.40;99.90;;;;;;5091168;28;20447;-71
2023/05/30 07:51:17;;;;;;;7.77;2.93;;;19.40;99.90;;;;;;5091076;28;20859;-70
2023/05/30 07:53:44;;;;;;;10.80;3.93;;;19.40;99.90;;;;;;5090976;28;20438;-71
2023/05/30 07:56:11;;;;;;;11.73;3.63;;;19.50;99.90;;;;;;5091189;28;20806;-71
2023/05/30 07:58:37;;;;;;;10.13;3.13;;;19.60;99.90;;;;;;5091050;28;20455;-71
2023/05/30 08:01:06;;;;;;;10.60;3.37;;;19.60;99.90;;;;;;5090631;28;20839;-70
2023/05/30 08:03:33;;;;;;;6.53;2.93;;;19.60;99.90;;;;;;5090990;28;20562;-71
2023/05/30 08:05:59;;;;;;;15.07;3.17;;;19.90;99.90;;;;;;5092398;28;20421;-71
2023/05/30 08:08:26;;;;;;;11.50;3.03;;;20.20;99.90;;;;;;5089327;28;20842;-71
2023/05/30 08:10:53;;;;;;;10.60;3.17;;;20.30;99.90;;;;;;5089709;28;20556;-71
2023/05/30 08:13:20;;;;;;;8.80;3.27;;;20.30;99.90;;;;;;5085822;28;20459;-71
2023/05/30 08:15:47;;;;;;;8.90;3.07;;;20.30;99.90;;;;;;5090617;28;20541;-71
2023/05/30 08:18:15;;;;;;;13.03;3.20;;;20.50;99.90;;;;;;5089700;28;20459;-69
2023/05/30 08:20:41;;;;;;;7.27;3.10;;;20.70;99.90;;;;;;5089707;28;20450;-71
2023/05/30 08:23:08;;;;;;;8.53;3.33;;;20.80;99.90;;;;;;5089654;28;20474;-70
2023/05/30 08:25:36;;;;;;;12.80;3.00;;;21.10;99.90;;;;;;5089774;28;20494;-71
2023/05/30 08:28:02;;;;;;;8.13;2.83;;;21.00;99.90;;;;;;5090276;28;20821;-71
2023/05/30 08:30:29;;;;;;;6.77;2.87;;;21.10;99.90;;;;;;5089719;28;20458;-70
2023/05/30 08:32:57;;;;;;;11.63;3.47;;;21.20;99.90;;;;;;5089061;28;20492;-71
2023/05/30 08:35:25;;;;;;;11.87;3.40;;;21.20;99.90;;;;;;5089080;28;20455;-71
2023/05/30 08:37:52;;;;;;;6.03;2.60;;;21.50;99.90;;;;;;5090240;28;20429;-70
2023/05/30 08:40:20;;;;;;;14.00;2.80;;;21.70;99.90;;;;;;5089429;28;20953;-71
2023/05/30 08:42:46;;;;;;;9.30;3.23;;;21.70;99.90;;;;;;5089033;28;20513;-70
2023/05/30 08:45:13;;;;;;;12.23;3.40;;;21.60;99.90;;;;;;5089342;28;21066;-71
2023/05/30 08:47:40;;;;;;;10.17;3.37;;;21.60;99.90;;;;;;5089390;28;20462;-71
2023/05/30 08:50:08;;;;;;;10.60;2.70;;;21.60;99.90;;;;;;5090302;28;20444;-71
2023/05/30 08:52:36;;;;;;;7.93;2.67;;;21.70;99.90;;;;;;5089852;28;20918;-71
2023/05/30 08:55:11;;;;;;;7.20;3.30;;;21.70;99.90;;;;;;5090030;28;20988;-71
2023/05/30 08:57:44;;;;;;;7.27;3.10;;;21.60;99.90;;;;;;5086360;28;20446;-71
2023/05/30 09:00:13;;;;;;;11.60;3.23;;;21.60;99.90;;;;;;5088497;28;20426;-71
2023/05/30 09:02:40;;;;;;;7.23;2.90;;;21.80;99.90;;;;;;5087423;28;20470;-71
2023/05/30 09:05:09;;;;;;;13.30;3.20;;;21.90;99.90;;;;;;5093324;28;20502;-70
2023/05/30 09:07:39;;;;;;;10.60;3.03;;;21.90;99.90;;;;;;5089976;28;20443;-70
2023/05/30 09:10:07;;;;;;;9.37;2.73;;;21.80;99.90;;;;;;5093242;28;20454;-71
2023/05/30 09:12:34;;;;;;;10.33;3.10;;;21.90;99.90;;;;;;5082462;28;20490;-71
2023/05/30 09:15:00;;;;;;;10.90;3.67;;;22.20;99.90;;;;;;5089610;28;20451;-70
2023/05/30 09:17:28;;;;;;;9.97;3.43;;;22.30;99.90;;;;;;5089126;28;20447;-72
2023/05/30 09:19:54;;;;;;;7.40;2.97;;;22.40;99.90;;;;;;5089475;28;20480;-69
2023/05/30 09:22:21;;;;;;;11.67;3.13;;;22.20;99.90;;;;;;5089917;28;20523;-70
2023/05/30 09:24:57;;;;;;;8.50;2.80;;;22.20;99.90;;;;;;5087204;28;20511;-70
2023/05/30 09:27:25;;;;;;;10.87;3.80;;;22.40;99.90;;;;;;5086019;28;20863;-70
2023/05/30 09:29:51;;;;;;;13.80;3.03;;;22.50;99.90;;;;;;5089139;28;20455;-70
2023/05/30 09:32:19;;;;;;;9.50;3.40;;;22.60;99.90;;;;;;5088782;28;20990;-70
2023/05/30 09:34:54;;;;;;;8.43;3.07;;;22.60;99.90;;;;;;5088510;28;20457;-70
2023/05/30 09:37:20;;;;;;;5.90;3.47;;;22.50;99.90;;;;;;5088742;28;20458;-70
2023/05/30 09:40:06;;;;;;;11.40;3.57;;;22.60;99.90;;;;;;5088530;28;20455;-70
2023/05/30 09:42:39;;;;;;;7.53;2.57;;;22.80;99.90;;;;;;5086528;28;20556;-71
2023/05/30 09:45:08;;;;;;;10.57;3.13;;;22.60;99.90;;;;;;5088849;28;20523;-70
2023/05/30 09:47:42;;;;;;;7.67;3.90;;;22.90;99.90;;;;;;5087911;28;20447;-70
2023/05/30 09:50:11;;;;;;;10.30;4.10;;;22.70;99.90;;;;;;5084140;28;21016;-70
2023/05/30 09:52:38;;;;;;;5.43;2.97;;;22.60;99.90;;;;;;5088161;28;20490;-70
2023/05/30 09:55:08;;;;;;;15.33;3.90;;;22.90;99.90;;;;;;5089173;28;20504;-70
2023/05/30 09:57:37;;;;;;;5.83;3.13;;;23.20;99.90;;;;;;5088978;28;20496;-70
2023/05/30 10:00:11;;;;;;;11.80;3.37;;;23.50;99.90;;;;;;5089187;28;20457;-71
2023/05/30 10:02:39;;;;;;;16.33;4.00;;;23.90;99.90;;;;;;5087513;28;20836;-70
2023/05/30 10:05:06;;;;;;;10.10;3.47;;;23.70;99.90;;;;;;5088834;28;21012;-68
2023/05/30 10:07:32;;;;;;;7.23;3.03;;;23.80;99.90;;;;;;5087581;28;20451;-70
2023/05/30 10:09:59;;;;;;;8.47;3.03;;;23.80;99.90;;;;;;5087369;28;20450;-70
2023/05/30 10:12:28;;;;;;;12.27;3.77;;;23.90;99.90;;;;;;5088451;28;20526;-70
2023/05/30 10:14:55;;;;;;;6.57;3.20;;;23.90;99.90;;;;;;5088903;28;20515;-70
2023/05/30 10:17:25;;;;;;;8.40;3.73;;;24.10;99.90;;;;;;5089545;28;20458;-70
2023/05/30 10:19:59;;;;;;;5.43;2.93;;;24.10;99.90;;;;;;5081675;28;20482;-70
2023/05/30 10:22:28;;;;;;;16.43;3.60;;;24.30;99.90;;;;;;5085610;28;20983;-69
2023/05/30 10:24:58;;;;;;;11.43;3.00;;;24.30;99.90;;;;;;5083963;28;20486;-71
2023/05/30 10:27:30;;;;;;;10.27;2.90;;;24.40;99.90;;;;;;5088969;28;20217;-71
2023/05/30 10:30:04;;;;;;;9.20;3.67;;;24.40;99.90;;;;;;5092063;28;20458;-71
2023/05/30 10:32:34;;;;;;;9.37;3.53;;;24.00;99.90;;;;;;5089635;28;20485;-70
2023/05/30 10:35:06;;;;;;;11.20;3.60;;;23.70;99.90;;;;;;5090700;28;20934;-70
2023/05/30 10:37:34;;;;;;;11.13;3.90;;;23.80;99.90;;;;;;5092893;28;20501;-70
2023/05/30 10:40:12;;;;;;;11.50;3.07;;;23.80;99.90;;;;;;5091637;28;20529;-70
2023/05/30 10:42:46;;;;;;;10.83;3.30;;;23.80;99.90;;;;;;5091663;28;20993;-70
2023/05/30 10:45:17;;;;;;;8.60;3.10;;;24.00;99.90;;;;;;5092086;28;20450;-70
2023/05/30 10:47:53;;;;;;;9.60;2.87;;;24.20;99.90;;;;;;5092076;28;20496;-71
2023/05/30 10:50:26;;;;;;;8.20;3.07;;;24.40;99.90;;;;;;5090222;28;20489;-70
2023/05/30 10:52:55;;;;;;;9.40;3.47;;;24.60;98.00;;;;;;5090859;28;20544;-70
2023/05/30 10:55:22;;;;;;;8.20;3.03;;;24.60;98.40;;;;;;5091502;28;21017;-70
2023/05/30 10:57:50;;;;;;;8.47;3.40;;;24.50;99.10;;;;;;5090627;28;20454;-70
2023/05/30 11:00:23;;;;;;;10.97;3.47;;;24.40;97.80;;;;;;5091267;28;20970;-71
2023/05/30 11:02:52;;;;;;;11.47;4.03;;;24.20;97.30;;;;;;5087445;28;20481;-71
2023/05/30 11:05:23;;;;;;;6.63;3.70;;;24.20;99.30;;;;;;5085409;28;21263;-70
2023/05/30 11:07:50;;;;;;;5.93;3.03;;;24.50;99.90;;;;;;5091586;28;20519;-71
2023/05/30 11:10:25;;;;;;;7.93;3.37;;;24.30;97.90;;;;;;5087742;28;20716;-69
2023/05/30 11:13:06;;;;;;;8.40;3.17;;;24.40;97.50;;;;;;5087462;28;20486;-69
2023/05/30 11:15:34;;;;;;;14.10;3.43;;;24.30;97.70;;;;;;5091086;28;20455;-70
2023/05/30 11:18:01;;;;;;;9.97;3.63;;;24.50;99.20;;;;;;5090678;28;20508;-71
2023/05/30 11:20:28;;;;;;;10.30;3.80;;;24.50;99.90;;;;;;5090148;28;20451;-70
2023/05/30 11:23:17;;;;;;;12.70;3.80;;;24.60;98.30;;;;;;5090968;28;20470;-70
2023/05/30 11:25:45;;;;;;;12.50;3.90;;;24.50;99.00;;;;;;5088281;28;20811;-70
2023/05/30 11:28:16;;;;;;;21.30;4.00;;;24.50;97.40;;;;;;5091758;28;20525;-70
2023/05/30 11:30:48;;;;;;;13.27;3.93;;;24.60;99.20;;;;;;5086249;28;20546;-71
2023/05/30 11:33:15;;;;;;;7.90;3.30;;;24.90;98.60;;;;;;5084958;28;20490;-72
2023/05/30 11:35:46;;;;;;;7.57;2.90;;;25.00;97.90;;;;;;5090428;28;20454;-71
2023/05/30 11:38:18;;;;;;;11.90;3.20;;;25.00;97.10;;;;;;5091656;28;20458;-72
2023/05/30 11:40:45;;;;;;;10.37;3.30;;;24.90;96.50;;;;;;5090171;28;20818;-70
2023/05/30 11:43:16;;;;;;;14.77;4.23;;;25.00;97.80;;;;;;5090886;28;20483;-71
2023/05/30 11:45:45;;;;;;;7.90;3.03;;;25.30;98.20;;;;;;5090740;28;20454;-71
2023/05/30 11:48:12;;;;;;;13.20;3.00;;;25.50;96.70;;;;;;5091136;28;20566;-71
2023/05/30 11:50:39;;;;;;;10.90;3.33;;;25.30;97.60;;;;;;5090125;28;20508;-71
2023/05/30 11:53:14;;;;;;;11.57;4.10;;;25.20;96.00;;;;;;5089783;28;20485;-71
2023/05/30 11:55:45;;;;;;;14.40;3.93;;;25.40;97.70;;;;;;5086760;28;20494;-71
2023/05/30 11:58:12;;;;;;;14.97;3.27;;;25.80;97.80;;;;;;5089275;28;20981;-71
2023/05/30 12:00:41;;;;;;;10.20;3.30;;;26.00;98.50;;;;;;5089668;28;20447;-72
2023/05/30 12:03:11;;;;;;;14.40;4.17;;;25.90;96.40;;;;;;5086699;28;20989;-71
2023/05/30 12:05:38;;;;;;;9.97;3.03;;;25.80;95.80;;;;;;5089164;28;20545;-70
2023/05/30 12:08:05;;;;;;;14.20;3.60;;;25.60;96.60;;;;;;5088892;28;20446;-71
2023/05/30 12:10:32;;;;;;;7.43;2.97;;;25.60;96.90;;;;;;5088559;28;20450;-71
2023/05/30 12:13:00;;;;;;;16.60;4.57;;;25.90;96.30;;;;;;5085432;28;20495;-71
2023/05/30 12:15:27;;;;;;;8.20;3.43;;;26.00;96.60;;;;;;5086636;28;20454;-71
2023/05/30 12:17:55;;;;;;;8.90;3.73;;;25.70;96.00;;;;;;5090340;28;20520;-71
2023/05/30 12:20:22;;;;;;;13.30;3.30;;;25.60;97.10;;;;;;5089774;28;20941;-67
2023/05/30 12:22:49;;;;;;;8.27;3.20;;;25.70;97.60;;;;;;5083683;28;20479;-67
2023/05/30 12:25:16;;;;;;;9.73;2.93;;;25.50;97.50;;;;;;5089958;28;20524;-68
2023/05/30 12:27:44;;;;;;;6.63;2.77;;;25.90;96.70;;;;;;5089304;28;20853;-68
2023/05/30 12:30:14;;;;;;;8.67;3.23;;;26.00;95.60;;;;;;5087020;28;20450;-68
2023/05/30 12:32:41;;;;;;;12.17;3.60;;;26.20;95.40;;;;;;5089403;28;20498;-68
2023/05/30 12:35:11;;;;;;;5.63;3.20;;;26.40;95.80;;;;;;5089425;28;20478;-68
2023/05/30 12:37:37;;;;;;;9.47;3.37;;;26.80;96.60;;;;;;5089870;28;20454;-69
2023/05/30 12:40:05;;;;;;;11.37;3.93;;;26.80;96.30;;;;;;5089189;28;20527;-68
2023/05/30 12:42:34;;;;;;;6.90;3.40;;;26.80;93.80;;;;;;5082788;28;20474;-68